createdAt,value
2023-04-24T00:05:23.224Z,15.66
2023-04-24T00:15:28.863Z,15.56
2023-04-24T00:25:34.668Z,15.41
2023-04-24T00:35:38.569Z,15.40
2023-04-24T00:45:42.262Z,15.37
2023-04-24T00:55:46.554Z,15.27
2023-04-24T01:05:52.237Z,15.11
2023-04-24T01:16:09.199Z,15.00
2023-04-24T01:26:14.700Z,14.95
2023-04-24T01:36:21.546Z,14.95
2023-04-24T01:46:27.612Z,14.98
2023-04-24T01:56:31.642Z,15.04
2023-04-24T02:06:36.963Z,15.13
2023-04-24T02:16:41.787Z,15.29
2023-04-24T02:26:46.001Z,15.37
2023-04-24T02:36:50.939Z,15.41
2023-04-24T02:46:57.777Z,15.44
2023-04-24T02:57:02.417Z,15.50
2023-04-24T03:07:09.927Z,15.58
2023-04-24T03:17:14.521Z,15.54
2023-04-24T03:27:22.962Z,15.53
2023-04-24T03:37:46.863Z,15.49
2023-04-24T03:48:10.719Z,15.50
2023-04-24T03:58:15.816Z,15.60
2023-04-24T04:08:24.422Z,15.71
2023-04-24T04:18:28.720Z,15.70
2023-04-24T04:28:33.708Z,15.83
2023-04-24T04:38:39.880Z,15.93
2023-04-24T04:48:55.768Z,15.90
2023-04-24T04:59:02.191Z,16.12
2023-04-24T05:09:08.643Z,16.31
2023-04-24T05:19:21.039Z,16.27
2023-04-24T05:29:32.176Z,16.41
2023-04-24T05:39:38.003Z,16.74
2023-04-24T05:49:41.820Z,17.04
2023-04-24T05:59:46.650Z,17.21
2023-04-24T06:09:56.416Z,17.10
2023-04-24T06:20:00.730Z,17.11
2023-04-24T06:30:05.111Z,17.20
2023-04-24T06:40:12.996Z,17.18
2023-04-24T06:50:16.670Z,17.16
2023-04-24T07:00:20.748Z,17.18
2023-04-24T07:10:25.817Z,17.18
2023-04-24T07:20:29.597Z,17.24
2023-04-24T07:30:37.228Z,17.50
2023-04-24T07:40:40.921Z,17.75
2023-04-24T07:50:45.821Z,18.03
2023-04-24T08:00:51.242Z,18.81
2023-04-24T08:10:56.880Z,20.02
2023-04-24T08:21:02.677Z,21.59
2023-04-24T08:31:09.037Z,22.33
2023-04-24T08:41:15.179Z,22.67
2023-04-24T08:51:21.660Z,22.85
2023-04-24T09:01:27.330Z,23.05
2023-04-24T09:11:36.089Z,23.39
2023-04-24T09:21:39.969Z,23.58
2023-04-24T09:31:50.151Z,23.61
2023-04-24T09:42:01.982Z,23.33
2023-04-24T09:52:09.966Z,23.20
2023-04-24T10:02:22.733Z,23.07
2023-04-24T10:12:26.632Z,22.79
2023-04-24T10:22:34.498Z,22.94
2023-04-24T10:32:38.786Z,23.30
2023-04-24T10:42:47.233Z,23.66
2023-04-24T10:52:52.590Z,23.86
2023-04-24T11:03:00.715Z,25.17
2023-04-24T11:13:04.874Z,25.65
2023-04-24T11:23:09.875Z,25.68
2023-04-24T11:33:22.553Z,25.76
2023-04-24T11:43:27.393Z,26.06
2023-04-24T11:53:31.976Z,26.20
2023-04-24T12:03:39.259Z,25.87
2023-04-24T12:13:43.267Z,25.92
2023-04-24T12:23:48.998Z,25.69
2023-04-24T12:33:52.695Z,25.58
2023-04-24T12:43:57.773Z,25.48
2023-04-24T12:54:01.383Z,25.44
2023-04-24T13:04:05.058Z,25.04
2023-04-24T13:14:08.802Z,25.37
2023-04-24T13:24:54.327Z,25.16
2023-04-24T13:34:59.171Z,24.61
2023-04-24T13:45:13.845Z,23.94
2023-04-24T13:55:47.057Z,22.41
2023-04-24T14:06:51.487Z,21.58
2023-04-24T14:16:55.400Z,21.95
2023-04-24T14:27:01.421Z,22.76
2023-04-24T14:37:05.054Z,22.66
2023-04-24T14:47:12.731Z,22.69
2023-04-24T14:57:16.735Z,23.92
2023-04-24T15:07:22.299Z,24.91
2023-04-24T15:17:30.320Z,24.96
2023-04-24T15:27:47.522Z,24.02
2023-04-24T15:37:51.130Z,22.64
2023-04-24T15:47:54.925Z,21.50
2023-04-24T15:57:58.624Z,19.26
2023-04-24T16:08:05.460Z,18.24
2023-04-24T16:18:12.848Z,18.26
2023-04-24T16:28:17.349Z,18.25
2023-04-24T16:38:21.333Z,18.24
2023-04-24T16:48:27.043Z,18.21
2023-04-24T16:58:31.637Z,18.01
2023-04-24T17:08:37.336Z,17.95
2023-04-24T17:18:43.002Z,17.81
2023-04-24T17:28:46.801Z,17.57
2023-04-24T17:38:53.080Z,17.23
2023-04-24T17:48:57.316Z,16.99
2023-04-24T17:59:01.134Z,16.70
2023-04-24T18:09:04.671Z,16.61
2023-04-24T18:19:13.485Z,16.46
2023-04-24T18:29:20.284Z,16.25
2023-04-24T18:40:26.356Z,16.20
2023-04-24T18:50:32.128Z,16.18
2023-04-24T19:00:39.562Z,16.17
2023-04-24T19:10:44.869Z,16.42
2023-04-24T19:20:56.886Z,16.65
2023-04-24T19:31:04.100Z,16.69
2023-04-24T19:41:07.779Z,16.67
2023-04-24T19:51:13.306Z,16.32
2023-04-24T20:01:17.033Z,15.82
2023-04-24T20:11:20.768Z,15.40
2023-04-24T20:21:44.661Z,15.68
2023-04-24T20:31:48.782Z,15.91
2023-04-24T20:41:52.901Z,15.76
2023-04-24T20:51:59.479Z,15.90
2023-04-24T21:02:45.639Z,15.91
2023-04-24T21:12:49.560Z,15.92
2023-04-24T21:22:53.305Z,15.72
2023-04-24T21:32:59.742Z,15.46
2023-04-24T21:43:03.925Z,15.22
2023-04-24T21:53:07.590Z,14.99
2023-04-24T22:03:34.057Z,14.58
2023-04-24T22:13:38.189Z,14.49
2023-04-24T22:23:41.832Z,14.34
2023-04-24T22:33:47.618Z,14.11
2023-04-24T22:43:52.155Z,13.72
2023-04-24T22:53:58.374Z,13.51
2023-04-24T23:04:02.083Z,13.57
2023-04-24T23:14:07.387Z,13.40
2023-04-24T23:24:12.798Z,13.05
2023-04-24T23:34:39.623Z,12.99
2023-04-24T23:44:43.204Z,12.79
2023-04-24T23:54:48.205Z,12.72
